createdAt,value
2023-05-24T11:37:05.165Z,22.79
2023-05-24T11:38:05.172Z,23.24
2023-05-24T11:39:05.198Z,23.61
2023-05-24T11:40:05.193Z,23.86
2023-05-24T11:41:05.202Z,24.09
2023-05-24T11:42:05.169Z,24.27
2023-05-24T11:43:05.162Z,24.38
2023-05-24T11:44:05.150Z,24.51
2023-05-24T11:45:05.159Z,24.61
2023-05-24T11:46:05.184Z,24.69
2023-05-24T11:47:05.281Z,24.79
2023-05-24T11:48:05.125Z,24.83
2023-05-24T11:49:05.121Z,24.90
2023-05-24T11:50:05.101Z,24.96
2023-05-24T11:51:05.103Z,25.00
2023-05-24T11:52:05.074Z,25.06
2023-05-24T11:53:05.176Z,25.10
2023-05-24T11:54:05.069Z,25.11
2023-05-24T11:55:05.097Z,25.13
2023-05-24T11:56:05.255Z,25.18
2023-05-24T11:57:05.046Z,25.20
2023-05-24T11:58:05.365Z,25.22
2023-05-24T11:59:05.036Z,25.24
2023-05-24T12:00:05.074Z,25.27
2023-05-24T12:01:05.028Z,25.30
2023-05-24T12:02:05.124Z,25.30
2023-05-24T12:03:05.187Z,25.31
2023-05-24T12:04:05.159Z,25.31
2023-05-24T12:05:05.006Z,25.34
2023-05-24T12:06:04.992Z,25.37
2023-05-24T12:07:05.014Z,25.34
2023-05-24T12:08:04.975Z,25.39
2023-05-24T12:09:04.987Z,25.37
2023-05-24T12:10:04.954Z,25.39
2023-05-24T12:11:04.965Z,25.37
2023-05-24T12:12:04.974Z,25.39
2023-05-24T12:13:04.963Z,25.41
2023-05-24T12:14:04.966Z,25.42
2023-05-24T12:15:04.913Z,25.41
2023-05-24T12:16:04.996Z,25.39
2023-05-24T12:17:04.896Z,25.42
2023-05-24T12:18:04.963Z,25.39
2023-05-24T12:19:11.620Z,25.41
2023-05-24T12:20:05.946Z,25.42
2023-05-24T12:21:04.886Z,25.42
2023-05-24T12:22:04.878Z,25.45
2023-05-24T12:23:04.910Z,25.45
2023-05-24T12:24:04.859Z,25.42
2023-05-24T12:25:04.922Z,25.42
2023-05-24T12:26:04.877Z,25.44
2023-05-24T12:27:04.835Z,25.44
2023-05-24T12:28:04.836Z,25.44
2023-05-24T12:29:04.816Z,25.44
2023-05-24T12:30:04.820Z,25.42
2023-05-24T12:31:04.861Z,25.44
2023-05-24T12:32:04.831Z,25.41
2023-05-24T12:33:04.900Z,25.41
2023-05-24T12:34:04.813Z,25.42
2023-05-24T12:35:04.790Z,25.45
2023-05-24T12:36:04.759Z,25.44
2023-05-24T12:37:04.869Z,25.44
2023-05-24T12:38:04.728Z,25.44
2023-05-24T12:39:04.748Z,25.41
2023-05-24T12:40:04.730Z,25.42
2023-05-24T12:42:04.762Z,25.39
2023-05-24T12:43:04.754Z,25.39
2023-05-24T12:44:04.719Z,25.39
2023-05-24T12:45:04.716Z,25.41
2023-05-24T12:46:04.730Z,25.41
2023-05-24T12:47:04.821Z,25.38
2023-05-24T12:48:04.765Z,25.41
2023-05-24T12:49:04.709Z,25.38
2023-05-24T12:50:04.673Z,25.39
2023-05-24T12:51:04.700Z,25.38
2023-05-24T12:52:04.792Z,25.38
2023-05-24T12:53:04.666Z,25.38
2023-05-24T12:54:04.679Z,25.37
2023-05-24T12:55:04.690Z,25.37
2023-05-24T12:56:04.656Z,25.38
2023-05-24T12:57:04.664Z,25.41
2023-05-24T12:58:04.665Z,25.38
2023-05-24T12:59:04.633Z,25.37
2023-05-24T13:00:04.639Z,25.35
2023-05-24T13:01:11.623Z,25.37
2023-05-24T13:02:04.618Z,25.35
2023-05-24T13:03:04.643Z,25.34
2023-05-24T13:04:04.572Z,25.34
2023-05-24T13:05:04.605Z,25.34
2023-05-24T13:06:04.593Z,25.34
2023-05-24T13:07:04.567Z,25.34
2023-05-24T13:08:04.542Z,25.34
2023-05-24T13:09:04.548Z,25.35
2023-05-24T13:10:04.548Z,25.32
2023-05-24T13:11:04.561Z,25.31
2023-05-24T13:12:04.520Z,25.32
2023-05-24T13:13:04.602Z,25.31
2023-05-24T13:14:04.535Z,25.32
2023-05-24T13:15:04.522Z,25.32
2023-05-24T13:16:04.529Z,25.31
2023-05-24T13:17:04.515Z,25.31
2023-05-24T13:18:04.568Z,25.31
2023-05-24T13:19:04.519Z,25.31
2023-05-24T13:20:04.543Z,25.30
2023-05-24T13:21:04.557Z,25.30
2023-05-24T13:22:04.599Z,25.30
2023-05-24T13:23:04.476Z,25.31
2023-05-24T13:24:04.523Z,25.31
2023-05-24T13:25:04.535Z,25.30
2023-05-24T13:26:04.635Z,25.30
2023-05-24T13:27:04.545Z,25.30
2023-05-24T13:28:04.451Z,25.30
2023-05-24T13:30:04.475Z,25.27
2023-05-24T13:31:04.456Z,25.28
2023-05-24T13:32:04.954Z,25.28
2023-05-24T13:33:04.458Z,25.28
2023-05-24T13:34:04.429Z,25.28
2023-05-24T13:36:05.430Z,25.28
2023-05-24T13:37:04.362Z,25.27
2023-05-24T13:38:04.378Z,25.27
2023-05-24T13:39:13.996Z,25.28
2023-05-24T13:40:05.486Z,25.27
2023-05-24T13:41:04.419Z,25.27
2023-05-24T13:42:04.363Z,25.28
2023-05-24T13:43:04.339Z,25.30
2023-05-24T13:44:04.320Z,25.28
2023-05-24T13:45:04.274Z,25.25
2023-05-24T13:46:04.343Z,25.27
2023-05-24T13:47:04.501Z,25.27
2023-05-24T13:47:41.318Z,25.27
2023-05-24T13:48:04.386Z,25.27
2023-05-24T13:49:04.417Z,25.27
2023-05-24T13:50:04.287Z,25.28
2023-05-24T13:51:04.299Z,25.30
2023-05-24T13:52:04.417Z,25.27
2023-05-24T13:53:04.351Z,25.28
2023-05-24T13:54:04.466Z,25.25
2023-05-24T13:55:04.399Z,25.25
2023-05-24T13:56:04.427Z,25.27
2023-05-24T13:57:04.946Z,25.27
2023-05-24T13:58:04.472Z,25.27
2023-05-24T13:59:04.776Z,25.28
2023-05-24T14:00:04.545Z,25.27
2023-05-24T14:01:05.382Z,25.27
2023-05-24T14:02:05.045Z,25.31
2023-05-24T14:03:04.620Z,25.28
2023-05-24T14:04:04.616Z,25.27
2023-05-24T14:05:21.687Z,25.27
2023-05-24T14:06:05.751Z,25.28
2023-05-24T14:07:04.927Z,25.30
2023-05-24T14:08:04.646Z,25.30
2023-05-24T14:09:04.650Z,25.28
2023-05-24T14:10:04.629Z,25.30
2023-05-24T14:11:04.650Z,25.28
2023-05-24T14:12:04.955Z,25.30
2023-05-24T14:13:28.911Z,25.28
2023-05-24T14:14:43.162Z,25.30
2023-05-24T14:15:05.606Z,25.30
2023-05-24T14:16:05.417Z,25.30
2023-05-24T14:17:05.453Z,25.30
2023-05-24T14:18:04.603Z,25.30
2023-05-24T14:19:04.568Z,25.31
2023-05-24T14:20:04.529Z,25.30
2023-05-24T14:21:04.531Z,25.28
2023-05-24T14:22:04.970Z,25.31
2023-05-24T14:23:04.536Z,25.30
2023-05-24T14:24:04.525Z,25.31
2023-05-24T14:25:04.499Z,25.31
2023-05-24T14:26:04.526Z,25.30
2023-05-24T14:27:04.926Z,25.30
2023-05-24T14:28:04.537Z,25.31
2023-05-24T14:29:04.558Z,25.31
2023-05-24T14:30:04.595Z,25.32
2023-05-24T14:31:04.667Z,25.30
2023-05-24T14:32:04.729Z,25.30
2023-05-24T14:33:04.905Z,25.34
2023-05-24T14:34:04.779Z,25.32
2023-05-24T14:35:04.815Z,25.32
2023-05-24T14:36:04.808Z,25.32
2023-05-24T14:37:04.898Z,25.32
2023-05-24T14:38:04.848Z,25.31
2023-05-24T14:39:04.906Z,25.34
2023-05-24T14:40:05.012Z,25.34
2023-05-24T14:41:04.944Z,25.32
2023-05-24T14:42:05.464Z,25.35
2023-05-24T14:43:05.001Z,25.32
2023-05-24T14:44:05.041Z,25.32
2023-05-24T14:45:05.092Z,25.34
2023-05-24T14:46:05.122Z,25.34
2023-05-24T14:47:05.431Z,25.37
2023-05-24T14:48:05.191Z,25.34
2023-05-24T14:49:05.208Z,25.35
2023-05-24T14:50:05.914Z,25.35
2023-05-24T14:51:05.300Z,25.35
2023-05-24T14:52:05.431Z,25.37
2023-05-24T14:53:05.283Z,25.35
2023-05-24T14:54:05.338Z,25.37
2023-05-24T14:55:05.366Z,25.35
2023-05-24T14:56:05.441Z,25.34
2023-05-24T14:57:05.449Z,25.35
2023-05-24T14:58:05.442Z,25.37
2023-05-24T14:59:05.453Z,25.34
2023-05-24T15:00:05.534Z,25.34
2023-05-24T15:01:05.536Z,25.37
2023-05-24T15:02:05.914Z,25.37
2023-05-24T15:03:05.644Z,25.35
2023-05-24T15:04:05.623Z,25.35
2023-05-24T15:05:05.641Z,25.34
2023-05-24T15:06:05.644Z,25.34
2023-05-24T15:07:05.668Z,25.34
2023-05-24T15:08:05.768Z,25.35
2023-05-24T15:09:05.701Z,25.34
2023-05-24T15:10:05.790Z,25.35
2023-05-24T15:11:05.756Z,25.32
2023-05-24T15:12:06.022Z,25.35
2023-05-24T15:13:05.830Z,25.32
2023-05-24T15:14:05.896Z,25.34
2023-05-24T15:15:05.847Z,25.35
2023-05-24T15:16:05.925Z,25.32
2023-05-24T15:17:05.976Z,25.34
2023-05-24T15:18:06.024Z,25.32
2023-05-24T15:19:05.990Z,25.35
2023-05-24T15:20:06.021Z,25.34
2023-05-24T15:21:06.031Z,25.34
2023-05-24T15:22:06.475Z,25.34
2023-05-24T15:23:06.068Z,25.32
2023-05-24T15:24:06.107Z,25.34
2023-05-24T15:25:06.135Z,25.35
2023-05-24T15:26:06.145Z,25.34
2023-05-24T15:27:06.433Z,25.34
2023-05-24T15:28:06.253Z,25.32
2023-05-24T15:29:06.264Z,25.32
2023-05-24T15:30:06.295Z,25.34
2023-05-24T15:31:06.297Z,25.35
2023-05-24T15:32:06.447Z,25.34
2023-05-24T15:33:06.383Z,25.35
2023-05-24T15:34:06.416Z,25.34
2023-05-24T15:35:06.433Z,25.37
2023-05-24T15:36:06.467Z,25.34
2023-05-24T15:37:06.993Z,25.34
2023-05-24T15:38:06.555Z,25.34
2023-05-24T15:39:06.558Z,25.34
2023-05-24T15:40:06.526Z,25.32
2023-05-24T15:41:06.593Z,25.34
2023-05-24T15:42:06.963Z,25.32
2023-05-24T15:43:06.627Z,25.32
2023-05-24T15:44:06.622Z,25.34
2023-05-24T15:45:06.682Z,25.32
2023-05-24T15:46:06.733Z,25.34
2023-05-24T15:47:06.981Z,25.34
2023-05-24T15:48:06.747Z,25.32
2023-05-24T15:49:06.779Z,25.32
2023-05-24T15:50:06.785Z,25.34
2023-05-24T15:51:58.090Z,25.34
2023-05-24T15:52:08.002Z,25.35
2023-05-24T15:53:06.852Z,25.31
2023-05-24T15:54:06.811Z,25.34
2023-05-24T15:55:06.778Z,25.32
2023-05-24T15:56:06.794Z,25.34
2023-05-24T15:57:07.472Z,25.31
2023-05-24T15:58:06.758Z,25.34
2023-05-24T15:59:06.804Z,25.34
2023-05-24T16:00:06.760Z,25.34
2023-05-24T16:01:06.759Z,25.31
2023-05-24T16:02:06.751Z,25.32
2023-05-24T16:03:06.875Z,25.31
2023-05-24T16:04:06.778Z,25.32
2023-05-24T16:05:06.735Z,25.32
2023-05-24T16:06:06.705Z,25.31
2023-05-24T16:07:06.721Z,25.32
2023-05-24T16:08:06.727Z,25.34
2023-05-24T16:09:06.729Z,25.34
2023-05-24T16:10:06.774Z,25.31
2023-05-24T16:11:06.785Z,25.32
2023-05-24T16:12:07.292Z,25.31
2023-05-24T16:13:06.851Z,25.30
2023-05-24T16:14:06.904Z,25.31
2023-05-24T16:15:06.913Z,25.32
2023-05-24T16:16:06.988Z,25.31
2023-05-24T16:17:07.018Z,25.31
2023-05-24T16:18:07.021Z,25.32
2023-05-24T16:19:07.013Z,25.32
2023-05-24T16:20:07.064Z,25.32
2023-05-24T16:21:07.094Z,25.30
2023-05-24T16:22:07.116Z,25.31
2023-05-24T16:23:07.125Z,25.31
2023-05-24T16:24:07.132Z,25.30
2023-05-24T16:25:07.181Z,25.30
2023-05-24T16:26:07.194Z,25.27
2023-05-24T16:27:07.187Z,25.32
2023-05-24T16:28:07.453Z,25.32
2023-05-24T16:29:07.267Z,25.30
2023-05-24T16:30:07.297Z,25.30
2023-05-24T16:31:07.334Z,25.28
2023-05-24T16:32:07.478Z,25.32
2023-05-24T16:33:07.489Z,25.28
2023-05-24T16:34:07.466Z,25.28
2023-05-24T16:35:07.423Z,25.28
2023-05-24T16:36:07.426Z,25.28
2023-05-24T16:37:07.468Z,25.28
2023-05-24T16:38:07.960Z,25.30
2023-05-24T16:39:07.534Z,25.30
2023-05-24T16:40:07.514Z,25.28
2023-05-24T16:41:07.540Z,25.28
2023-05-24T16:42:07.616Z,25.32
2023-05-24T16:43:07.578Z,25.30
2023-05-24T16:44:07.620Z,25.31
2023-05-24T16:45:07.669Z,25.30
2023-05-24T16:46:07.715Z,25.31
2023-05-24T16:47:07.839Z,25.31
2023-05-24T16:48:07.851Z,25.30
2023-05-24T16:49:07.755Z,25.32
2023-05-24T16:50:07.789Z,25.31
2023-05-24T16:51:07.825Z,25.30
2023-05-24T16:52:07.822Z,25.30
2023-05-24T16:53:07.994Z,25.31
2023-05-24T16:54:07.895Z,25.30
2023-05-24T16:55:07.969Z,25.30
2023-05-24T16:56:07.955Z,25.30
2023-05-24T16:57:08.039Z,25.34
2023-05-24T16:58:08.036Z,25.31
2023-05-24T16:59:08.029Z,25.34
2023-05-24T17:00:08.089Z,25.32
2023-05-24T17:01:08.149Z,25.32
2023-05-24T17:02:08.096Z,25.30
2023-05-24T17:03:08.246Z,25.31
2023-05-24T17:04:08.237Z,25.31
2023-05-24T17:05:08.200Z,25.34
2023-05-24T17:06:08.179Z,25.32
2023-05-24T17:07:08.190Z,25.34
2023-05-24T17:08:08.247Z,25.31
2023-05-24T17:09:08.283Z,25.32
2023-05-24T17:10:08.300Z,25.34
2023-05-24T17:11:08.322Z,25.32
2023-05-24T17:12:08.344Z,25.31
2023-05-24T17:13:08.336Z,25.30
2023-05-24T17:14:08.350Z,25.32
2023-05-24T17:15:08.409Z,25.34
2023-05-24T17:16:08.464Z,25.32
2023-05-24T17:17:09.929Z,25.32
2023-05-24T17:18:08.452Z,25.31
2023-05-24T17:19:08.438Z,25.32
2023-05-24T17:20:08.530Z,25.32
2023-05-24T17:21:08.410Z,25.31
2023-05-24T17:22:08.396Z,25.31
2023-05-24T17:23:08.516Z,25.30
2023-05-24T17:24:08.425Z,25.28
2023-05-24T17:25:08.404Z,25.28
2023-05-24T17:26:08.439Z,25.32
2023-05-24T17:27:08.375Z,25.31
2023-05-24T17:28:08.516Z,25.30
2023-05-24T17:29:08.357Z,25.30
2023-05-24T17:30:08.353Z,25.30
2023-05-24T17:31:08.353Z,25.30
2023-05-24T17:32:08.359Z,25.30
2023-05-24T17:33:08.595Z,25.30
2023-05-24T17:34:08.319Z,25.28
2023-05-24T17:35:08.295Z,25.30
2023-05-24T17:36:08.291Z,25.27
2023-05-24T17:37:08.304Z,25.30
2023-05-24T17:38:08.530Z,25.28
2023-05-24T17:39:08.286Z,25.27
2023-05-24T17:40:08.278Z,25.28
2023-05-24T17:41:09.006Z,25.27
2023-05-24T17:42:08.280Z,25.30
2023-05-24T17:43:08.503Z,25.25
2023-05-24T17:44:08.289Z,25.28
2023-05-24T17:45:08.288Z,25.28
2023-05-24T17:46:08.374Z,25.28
2023-05-24T17:47:08.290Z,25.27
2023-05-24T17:48:08.297Z,25.25
2023-05-24T17:49:08.222Z,25.31
2023-05-24T17:50:08.196Z,25.28
2023-05-24T17:51:08.284Z,25.30
2023-05-24T17:52:08.209Z,25.30
2023-05-24T17:53:16.004Z,25.31
2023-05-24T17:54:09.188Z,25.31
2023-05-24T17:55:08.220Z,25.30
2023-05-24T17:56:08.171Z,25.31
2023-05-24T17:57:08.187Z,25.28
2023-05-24T17:58:08.488Z,25.27
2023-05-24T17:59:08.137Z,25.28
2023-05-24T18:00:08.151Z,25.30
2023-05-24T18:01:08.248Z,25.30
2023-05-24T18:02:08.116Z,25.32
2023-05-24T18:03:08.494Z,25.31
2023-05-24T18:04:08.802Z,25.32
2023-05-24T18:05:08.168Z,25.34
2023-05-24T18:06:08.126Z,25.35
2023-05-24T18:07:08.093Z,25.35
2023-05-24T18:08:08.107Z,25.38
2023-05-24T18:09:08.077Z,25.37
2023-05-24T18:10:08.174Z,25.39
2023-05-24T18:11:08.213Z,25.39
2023-05-24T18:12:08.159Z,25.37
2023-05-24T18:13:08.510Z,25.42
2023-05-24T18:14:08.239Z,25.39
2023-05-24T18:15:08.226Z,25.42
2023-05-24T18:16:08.274Z,25.41
2023-05-24T18:17:08.314Z,25.37
2023-05-24T18:18:08.605Z,25.41
2023-05-24T18:19:08.351Z,25.42
2023-05-24T18:20:08.399Z,25.39
2023-05-24T18:21:08.353Z,25.42
2023-05-24T18:22:08.413Z,25.44
2023-05-24T18:23:08.414Z,25.45
2023-05-24T18:24:08.416Z,25.46
2023-05-24T18:25:08.475Z,25.48
2023-05-24T18:26:08.496Z,25.45
2023-05-24T18:27:08.496Z,25.45
2023-05-24T18:28:08.513Z,25.46
2023-05-24T18:29:08.510Z,25.32
2023-05-24T18:30:08.570Z,25.35
2023-05-24T18:31:08.746Z,25.35
2023-05-24T18:32:08.649Z,25.39
2023-05-24T18:33:09.231Z,25.39
2023-05-24T18:34:08.670Z,25.42
2023-05-24T18:35:08.660Z,25.42
2023-05-24T18:36:08.672Z,25.44
2023-05-24T18:37:08.708Z,25.45
2023-05-24T18:38:09.024Z,25.46
2023-05-24T18:39:08.800Z,25.48
2023-05-24T18:40:08.795Z,25.49
2023-05-24T18:41:08.794Z,25.55
2023-05-24T18:42:08.805Z,25.50
2023-05-24T18:43:09.078Z,25.53
2023-05-24T18:44:08.856Z,25.56
2023-05-24T18:45:08.878Z,25.55
2023-05-24T18:46:08.949Z,25.58
2023-05-24T18:47:08.933Z,25.56
2023-05-24T18:48:09.105Z,25.59
2023-05-24T18:49:08.958Z,25.58
2023-05-24T18:50:08.937Z,25.61
2023-05-24T18:51:08.991Z,25.61
2023-05-24T18:52:08.989Z,25.62
2023-05-24T18:53:09.545Z,25.62
2023-05-24T18:54:09.057Z,25.62
2023-05-24T18:55:09.039Z,25.63
2023-05-24T18:56:09.065Z,25.65
2023-05-24T18:57:09.117Z,25.65
2023-05-24T18:58:09.557Z,25.65
2023-05-24T18:59:10.900Z,25.65
2023-05-24T19:00:09.128Z,25.65
2023-05-24T19:01:09.169Z,25.65
2023-05-24T19:02:09.137Z,25.66
2023-05-24T19:03:09.543Z,25.68
2023-05-24T19:04:09.115Z,25.66
2023-05-24T19:05:09.069Z,25.66
2023-05-24T19:06:09.074Z,25.68
2023-05-24T19:07:09.097Z,25.68
2023-05-24T19:08:09.554Z,25.72
2023-05-24T19:09:09.043Z,25.68
2023-05-24T19:10:09.058Z,25.70
2023-05-24T19:11:09.057Z,25.72
2023-05-24T19:12:09.019Z,25.73
2023-05-24T19:13:09.545Z,25.70
2023-05-24T19:14:09.038Z,25.75
2023-05-24T19:15:09.044Z,25.70
2023-05-24T19:16:09.046Z,25.72
2023-05-24T19:17:09.009Z,25.75
2023-05-24T19:18:09.088Z,25.79
2023-05-24T19:19:09.011Z,25.80
2023-05-24T19:20:09.073Z,25.83
2023-05-24T19:21:08.975Z,25.87
2023-05-24T19:22:08.950Z,25.89
2023-05-24T19:23:09.023Z,25.91
2023-05-24T19:24:08.947Z,25.96
2023-05-24T19:25:08.953Z,25.98
2023-05-24T19:26:08.932Z,26.01
2023-05-24T19:27:08.937Z,26.05
2023-05-24T19:28:09.037Z,26.08
2023-05-24T19:29:09.565Z,26.09
2023-05-24T19:30:08.935Z,26.09
2023-05-24T19:31:08.897Z,26.12
2023-05-24T19:32:08.990Z,26.17
2023-05-24T19:33:09.080Z,26.15
2023-05-24T19:34:08.861Z,26.21
2023-05-24T19:35:08.884Z,26.22
2023-05-24T19:36:10.641Z,26.25
2023-05-24T19:37:08.889Z,26.24
2023-05-24T19:38:09.045Z,26.28
2023-05-24T19:39:08.853Z,26.31
2023-05-24T19:40:08.857Z,26.28
2023-05-24T19:41:08.861Z,26.32
2023-05-24T19:42:08.819Z,26.34
2023-05-24T19:43:09.041Z,26.35
2023-05-24T19:44:08.802Z,26.38
2023-05-24T19:45:08.797Z,26.39
2023-05-24T19:46:08.862Z,26.40
2023-05-24T19:47:08.795Z,26.40
2023-05-24T19:48:08.839Z,26.40
2023-05-24T19:49:08.924Z,26.40
2023-05-24T19:50:09.002Z,26.45
2023-05-24T19:51:09.043Z,26.45
2023-05-24T19:52:09.094Z,26.46
2023-05-24T19:53:09.545Z,26.46
2023-05-24T19:54:09.217Z,26.47
2023-05-24T19:55:09.254Z,26.46
2023-05-24T19:56:09.296Z,26.49
2023-05-24T19:57:09.392Z,26.50
2023-05-24T19:58:09.452Z,26.52
2023-05-24T19:59:09.500Z,26.47
2023-05-24T20:00:09.560Z,26.50
2023-05-24T20:01:09.680Z,26.46
2023-05-24T20:02:09.653Z,26.45
2023-05-24T20:03:10.112Z,26.46
2023-05-24T20:04:09.833Z,26.43
2023-05-24T20:05:09.859Z,26.43
2023-05-24T20:06:09.903Z,26.39
2023-05-24T20:07:09.942Z,26.38
2023-05-24T20:08:10.018Z,26.35
2023-05-24T20:09:09.991Z,26.32
2023-05-24T20:10:09.940Z,26.29
2023-05-24T20:11:09.953Z,26.29
2023-05-24T20:12:09.961Z,26.31
2023-05-24T20:13:10.038Z,26.27
2023-05-24T20:14:09.912Z,26.21
2023-05-24T20:15:09.919Z,26.20
2023-05-24T20:16:09.984Z,26.18
2023-05-24T20:17:09.935Z,26.15
2023-05-24T20:18:10.118Z,26.14
2023-05-24T20:19:09.952Z,26.11
2023-05-24T20:20:09.985Z,26.11
2023-05-24T20:21:09.954Z,26.08
2023-05-24T20:22:09.975Z,26.05
2023-05-24T20:23:10.048Z,26.05
2023-05-24T20:24:09.942Z,26.04
2023-05-24T20:25:10.004Z,26.03
2023-05-24T20:26:10.010Z,26.00
2023-05-24T20:27:10.011Z,26.00
2023-05-24T20:28:21.674Z,25.96
2023-05-24T20:29:11.012Z,25.97
2023-05-24T20:30:09.979Z,25.93
2023-05-24T20:31:10.027Z,25.93
2023-05-24T20:32:09.970Z,25.91
2023-05-24T20:33:09.976Z,25.90
2023-05-24T20:34:09.943Z,25.89
2023-05-24T20:35:09.951Z,25.87
2023-05-24T20:36:09.963Z,25.86
2023-05-24T20:37:09.927Z,25.83
2023-05-24T20:38:09.898Z,25.84
2023-05-24T20:39:09.937Z,25.81
2023-05-24T20:40:09.916Z,25.80
2023-05-24T20:41:09.887Z,25.81
2023-05-24T20:42:09.898Z,25.80
2023-05-24T20:43:09.888Z,25.79
2023-05-24T20:44:09.914Z,25.79
2023-05-24T20:45:09.910Z,25.76
2023-05-24T20:46:09.996Z,25.73
2023-05-24T20:47:09.868Z,25.76
2023-05-24T20:48:09.925Z,25.73
2023-05-24T20:49:09.869Z,25.70
2023-05-24T20:50:09.894Z,25.72
2023-05-24T20:51:09.928Z,25.72
2023-05-24T20:52:09.939Z,25.69
2023-05-24T20:53:10.075Z,25.70
2023-05-24T20:54:10.000Z,25.70
2023-05-24T20:55:10.001Z,25.69
2023-05-24T20:56:10.029Z,25.66
2023-05-24T20:57:10.086Z,25.68
2023-05-24T20:58:10.071Z,25.66
2023-05-24T20:59:10.116Z,25.62
2023-05-24T21:00:10.154Z,25.66
2023-05-24T21:01:10.238Z,25.65
2023-05-24T21:02:10.252Z,25.66
2023-05-24T21:03:10.470Z,25.65
2023-05-24T21:04:10.287Z,25.61
2023-05-24T21:05:10.287Z,25.59
2023-05-24T21:06:10.349Z,25.62
2023-05-24T21:07:10.362Z,25.61
2023-05-24T21:08:10.388Z,25.59
2023-05-24T21:09:10.393Z,25.62
2023-05-24T21:10:10.444Z,25.59
2023-05-24T21:11:10.485Z,25.58
2023-05-24T21:12:10.489Z,25.58
2023-05-24T21:13:10.527Z,25.55
2023-05-24T21:14:10.572Z,25.55
2023-05-24T21:15:10.572Z,25.56
2023-05-24T21:16:10.616Z,25.56
2023-05-24T21:17:10.770Z,25.56
2023-05-24T21:18:10.733Z,25.55
2023-05-24T21:19:10.737Z,25.53
2023-05-24T21:20:10.783Z,25.53
2023-05-24T21:21:10.790Z,25.53
2023-05-24T21:22:10.813Z,25.52
2023-05-24T21:23:10.865Z,25.52
2023-05-24T21:24:10.917Z,25.52
2023-05-24T21:25:10.936Z,25.50
2023-05-24T21:26:10.963Z,25.50
2023-05-24T21:27:11.004Z,25.50
2023-05-24T21:28:11.069Z,25.48
2023-05-24T21:29:11.080Z,25.49
2023-05-24T21:30:11.166Z,25.50
2023-05-24T21:31:11.191Z,25.46
2023-05-24T21:32:11.208Z,25.48
2023-05-24T21:33:11.269Z,25.46
2023-05-24T21:34:11.284Z,25.48
2023-05-24T21:35:11.332Z,25.45
2023-05-24T21:36:11.398Z,25.42
2023-05-24T21:37:11.443Z,25.45
2023-05-24T21:38:11.562Z,25.45
2023-05-24T21:39:11.536Z,25.45
2023-05-24T21:40:11.578Z,25.42
2023-05-24T21:41:11.649Z,25.44
2023-05-24T21:42:11.731Z,25.41
2023-05-24T21:43:11.724Z,25.44
2023-05-24T21:44:11.756Z,25.41
2023-05-24T21:45:11.852Z,25.41
2023-05-24T21:46:11.883Z,25.39
2023-05-24T21:47:11.904Z,25.38
2023-05-24T21:48:12.086Z,25.41
2023-05-24T21:49:11.966Z,25.41
2023-05-24T21:50:12.029Z,25.39
2023-05-24T21:51:12.079Z,25.38
2023-05-24T21:52:12.130Z,25.38
2023-05-24T21:53:12.154Z,25.38
2023-05-24T21:54:12.210Z,25.37
2023-05-24T21:55:12.275Z,25.35
2023-05-24T21:56:12.330Z,25.38
2023-05-24T21:57:12.332Z,25.35
2023-05-24T21:58:12.393Z,25.39
2023-05-24T21:59:12.468Z,25.37
2023-05-24T22:00:12.447Z,25.37
2023-05-24T22:01:12.507Z,25.38
2023-05-24T22:02:12.645Z,25.37
2023-05-24T22:03:13.145Z,25.35
2023-05-24T22:04:12.786Z,25.34
2023-05-24T22:05:12.707Z,25.35
2023-05-24T22:06:12.745Z,25.32
2023-05-24T22:07:12.816Z,25.34
2023-05-24T22:08:20.154Z,25.34
2023-05-24T22:09:12.821Z,25.35
2023-05-24T22:10:12.869Z,25.31
2023-05-24T22:11:12.853Z,25.32
2023-05-24T22:12:12.845Z,25.31
2023-05-24T22:13:12.859Z,25.32
2023-05-24T22:14:12.834Z,25.32
2023-05-24T22:15:12.822Z,25.32
2023-05-24T22:16:12.864Z,25.30
2023-05-24T22:17:12.774Z,25.30
2023-05-24T22:18:13.140Z,25.31
2023-05-24T22:19:14.469Z,25.32
2023-05-24T22:20:12.836Z,25.30
2023-05-24T22:21:12.738Z,25.31
2023-05-24T22:22:12.787Z,25.31
2023-05-24T22:23:12.818Z,25.28
2023-05-24T22:24:12.897Z,25.30
2023-05-24T22:25:12.931Z,25.28
2023-05-24T22:26:12.987Z,25.30
2023-05-24T22:27:13.059Z,25.28
2023-05-24T22:28:13.093Z,25.30
2023-05-24T22:29:13.133Z,25.27
2023-05-24T22:30:13.182Z,25.30
2023-05-24T22:31:13.288Z,25.27
2023-05-24T22:32:13.302Z,25.27
2023-05-24T22:33:13.297Z,25.28
2023-05-24T22:34:13.388Z,25.27
2023-05-24T22:35:13.426Z,25.27
2023-05-24T22:36:13.468Z,25.25
2023-05-24T22:37:13.513Z,25.27
2023-05-24T22:38:13.579Z,25.25
2023-05-24T22:39:13.619Z,25.27
2023-05-24T22:40:13.654Z,25.27
2023-05-24T22:41:13.737Z,25.27
2023-05-24T22:42:13.789Z,25.25
2023-05-24T22:43:13.855Z,25.25
2023-05-24T22:44:13.895Z,25.25
2023-05-24T22:45:13.960Z,25.25
2023-05-24T22:46:14.006Z,25.24
2023-05-24T22:47:14.092Z,25.25
2023-05-24T22:48:14.165Z,25.24
2023-05-24T22:49:14.171Z,25.24
2023-05-24T22:50:14.224Z,25.22
2023-05-24T22:51:14.288Z,25.24
2023-05-24T22:52:14.326Z,25.22
2023-05-24T22:53:14.402Z,25.22
2023-05-24T22:54:14.484Z,25.22
2023-05-24T22:55:14.544Z,25.21
2023-05-24T22:56:14.598Z,25.22
2023-05-24T22:57:14.628Z,25.21
2023-05-24T22:58:14.719Z,25.22
2023-05-24T22:59:14.768Z,25.22
2023-05-24T23:00:14.819Z,25.21
2023-05-24T23:01:14.924Z,25.21
2023-05-24T23:02:14.905Z,25.20
2023-05-24T23:03:15.062Z,25.22
2023-05-24T23:04:20.955Z,25.22
2023-05-24T23:05:16.102Z,25.21
2023-05-24T23:06:15.001Z,25.20
2023-05-24T23:07:15.023Z,25.21
2023-05-24T23:08:15.021Z,25.20
2023-05-24T23:09:15.026Z,25.18
2023-05-24T23:10:14.995Z,25.20
2023-05-24T23:11:15.003Z,25.20
2023-05-24T23:12:15.016Z,25.20
2023-05-24T23:13:15.014Z,25.18
2023-05-24T23:14:15.050Z,25.20
2023-05-24T23:15:15.118Z,25.18
2023-05-24T23:16:15.183Z,25.20
2023-05-24T23:17:15.378Z,25.17
2023-05-24T23:18:15.328Z,25.20
2023-05-24T23:19:15.371Z,25.17
2023-05-24T23:20:15.475Z,25.20
2023-05-24T23:21:15.453Z,25.20
2023-05-24T23:22:15.519Z,25.18
2023-05-24T23:23:15.543Z,25.18
2023-05-24T23:24:15.610Z,25.17
2023-05-24T23:25:15.713Z,25.15
2023-05-24T23:26:15.723Z,25.17
2023-05-24T23:27:15.757Z,25.17
2023-05-24T23:28:15.834Z,25.18
2023-05-24T23:29:15.935Z,25.15
2023-05-24T23:30:15.953Z,25.17
2023-05-24T23:31:16.102Z,25.17
2023-05-24T23:32:16.088Z,25.15
2023-05-24T23:33:16.137Z,25.15
2023-05-24T23:34:16.225Z,25.15
2023-05-24T23:35:16.273Z,25.15
2023-05-24T23:36:16.333Z,25.15
2023-05-24T23:37:16.371Z,25.15
2023-05-24T23:38:16.461Z,25.17
2023-05-24T23:39:16.489Z,25.14
2023-05-24T23:40:16.570Z,25.13
2023-05-24T23:41:16.599Z,25.14
2023-05-24T23:42:16.703Z,25.15
2023-05-24T23:43:17.140Z,25.13
2023-05-24T23:44:16.812Z,25.14
2023-05-24T23:45:16.883Z,25.15
2023-05-24T23:46:17.059Z,25.14
2023-05-24T23:47:16.983Z,25.13
2023-05-24T23:48:17.054Z,25.13
2023-05-24T23:49:17.152Z,25.14
2023-05-24T23:50:17.184Z,25.14
2023-05-24T23:51:17.238Z,25.13
2023-05-24T23:52:17.285Z,25.13
2023-05-24T23:53:17.400Z,25.11
2023-05-24T23:54:17.416Z,25.13
2023-05-24T23:55:17.489Z,25.11
2023-05-24T23:56:17.547Z,25.10
2023-05-24T23:57:17.596Z,25.11
2023-05-24T23:58:17.647Z,25.11
2023-05-24T23:59:17.701Z,25.14
